MV Finola — OULQ2 — position and weather

sailwx.info

Track history (hours):
 
Tides and Currents Weather Stations Pressure Air Temp Water Temp Dewpoint Dewpoint Depression Visibility Wind Speed Wind Dir Waves Ship Positions

MV Finola

Last reported at 2014-Nov-21 14:25 UTC. Time now 2014-Dec-18 21:42 UTC.
Position S 10°18' E 129°36'.
Warning: this ship's position is 27 days out of date.

Length 86 m; draft 3.6 m.

Type: Cargo ship. MMSI: 219483000.

Date/timePositionNaut miles runAvg speedWind from/ knotsBaromVisibWave heightAir tempDewpointWater temp
2014-Nov-21 14:25S 10°18' E 129°36'1111.6
2014-Nov-21 13:30S 10°28' E 129°39'1112.0
2014-Nov-21 12:33S 10°40' E 129°41'1612.5
2014-Nov-21 11:18S 10°55' E 129°45'1012.3
2014-Nov-21 10:27S 11°05' E 129°48'5410.3
2014-Nov-21 05:13S 11°56' E 130°05'6 9.4
2014-Nov-21 04:33S 11°59' E 130°11'1010.3
2014-Nov-21 03:33S 12°03' E 130°21'1111.3
2014-Nov-21 02:33S 12°06' E 130°32'1110.6
2014-Nov-21 01:33S 12°13' E 130°40'1212.1
2014-Nov-21 00:33S 12°24' E 130°46'9 8.6
2014-Nov-20 23:31S 12°30' E 130°53'0 0.0
2014-Nov-20 22:31S 12°30' E 130°53'0 0.1
2014-Nov-20 21:31S 12°30' E 130°53'0 0.0
2014-Nov-20 20:31S 12°30' E 130°53'0 0.1
2014-Nov-20 19:31S 12°30' E 130°53'0 0.0
2014-Nov-20 18:31S 12°30' E 130°53'0 0.0
2014-Nov-20 17:31S 12°30' E 130°53'0 0.0
2014-Nov-20 16:31S 12°30' E 130°53'0 0.0
2014-Nov-20 15:34S 12°30' E 130°53'0 0.0
2014-Nov-20 14:34S 12°30' E 130°53'0 0.0
2014-Nov-20 13:33S 12°30' E 130°53'0 0.1
2014-Nov-20 12:33S 12°30' E 130°53'0 0.1
2014-Nov-20 11:33S 12°30' E 130°53'0 0.0
2014-Nov-20 10:33S 12°30' E 130°53'0 0.1
2014-Nov-20 09:33S 12°30' E 130°53'0 0.1
2014-Nov-20 08:33S 12°30' E 130°53'0 0.1
2014-Nov-20 07:33S 12°30' E 130°53'1 0.6
2014-Nov-20 06:33S 12°29' E 130°52'10 9.8
2014-Nov-20 05:33S 12°23' E 130°45'1413.5
2014-Nov-20 04:33S 12°15' E 130°34'1313.5
2014-Nov-20 03:33S 12°07' E 130°22'1413.2
2014-Nov-20 02:31S 12°00' E 130°10'  
Track history (hours):
 
Tides and Currents Weather Stations Pressure Air Temp Water Temp Dewpoint Dewpoint Depression Visibility Wind Speed Wind Dir Waves Ship Positions

MV Finola

Last reported at 2014-Nov-21 14:25 UTC. Time now 2014-Dec-18 21:42 UTC.
Position S 10°18' E 129°36'.
Warning: this ship's position is 27 days out of date.

Length 86 m; draft 3.6 m.

Type: Cargo ship. MMSI: 219483000.

Date/timePositionNaut miles runAvg speedWind from/ knotsBaromVisibWave heightAir tempDewpointWater temp
2014-Nov-21 14:25S 10°18' E 129°36'1111.6
2014-Nov-21 13:30S 10°28' E 129°39'1112.0
2014-Nov-21 12:33S 10°40' E 129°41'1612.5
2014-Nov-21 11:18S 10°55' E 129°45'1012.3
2014-Nov-21 10:27S 11°05' E 129°48'5410.3
2014-Nov-21 05:13S 11°56' E 130°05'6 9.4
2014-Nov-21 04:33S 11°59' E 130°11'1010.3
2014-Nov-21 03:33S 12°03' E 130°21'1111.3
2014-Nov-21 02:33S 12°06' E 130°32'1110.6
2014-Nov-21 01:33S 12°13' E 130°40'1212.1
2014-Nov-21 00:33S 12°24' E 130°46'9 8.6
2014-Nov-20 23:31S 12°30' E 130°53'0 0.0
2014-Nov-20 22:31S 12°30' E 130°53'0 0.1
2014-Nov-20 21:31S 12°30' E 130°53'0 0.0
2014-Nov-20 20:31S 12°30' E 130°53'0 0.1
2014-Nov-20 19:31S 12°30' E 130°53'0 0.0
2014-Nov-20 18:31S 12°30' E 130°53'0 0.0
2014-Nov-20 17:31S 12°30' E 130°53'0 0.0
2014-Nov-20 16:31S 12°30' E 130°53'0 0.0
2014-Nov-20 15:34S 12°30' E 130°53'0 0.0
2014-Nov-20 14:34S 12°30' E 130°53'0 0.0
2014-Nov-20 13:33S 12°30' E 130°53'0 0.1
2014-Nov-20 12:33S 12°30' E 130°53'0 0.1
2014-Nov-20 11:33S 12°30' E 130°53'0 0.0
2014-Nov-20 10:33S 12°30' E 130°53'0 0.1
2014-Nov-20 09:33S 12°30' E 130°53'0 0.1
2014-Nov-20 08:33S 12°30' E 130°53'0 0.1
2014-Nov-20 07:33S 12°30' E 130°53'1 0.6
2014-Nov-20 06:33S 12°29' E 130°52'10 9.8
2014-Nov-20 05:33S 12°23' E 130°45'1413.5
2014-Nov-20 04:33S 12°15' E 130°34'1313.5
2014-Nov-20 03:33S 12°07' E 130°22'1413.2
2014-Nov-20 02:31S 12°00' E 130°10'  

Dump ship's entire track history